Timeline UpdatesTrip UpdatesNews PostsPvt PostsTravel TipsAdmin PostsConv PostsFollowed PostsChat RequestsBlog PostsPNR Posts

Disclaimer
Search
 
 
Mon Jul 28, 2014 23:59:48 ISTHomeTrainsΣChainsAtlasPNRForumGalleryNewsFAQTripsMembersLoginFeedback
No Recent News for this Train
Other Trains in the News **new
Latest...
Will run till further notification #1151202
Mon Jun 30, 2014 (07:20PM)
⇐ Return Journey: Train# 13040

13039/Howrah-Delhi Janta Express (UnReserved)

Jun 30 (7:19PM)
Change Departure Station:
Change Arrival Station:
Post a Train Travel TipPost a Train Travel Tip **new
Post a Comment/Question/Picture/VideoPost a Comment/Question/Picture/Video
Inaugural Run
Tue Oct 01, 1946
Pantry/Catering
✕ NO Pantry Car
✕ NO Catering
RSA - Rake Sharing
Rake/Coach Composition
2 SLR, 5 General Class, and 5-7 HCPV proceeds to Delhi from Bakhtiyarpur.; 2 Sleeper class coaches and general coaches are attached at Bakhtiyarpur to 53232 Danapur-Tilaiya Passenger to run combined upto Rajgir (13039 - Slip); [Loco-SLR-HCPV-HCPV-HCPV-HCPV-HCPV-(HCPV-HCPV)-General-General]-[General-General-General-General-General-SLR-Sleeper-Sleeper]
Loco
Zahaib Entry# 624182 Loco: HWH WAP4
News    PNR    Forum    Time-Table    Availability    Fare Chart    Map    Arr/Dep History    Trips    Gallery    ΣChains    X/O    Timeline    
Travel Time: 26h 40m    90 halts    Distance: 1107 km    Avg Speed: 41 km/hr
Type: Mail/Express
Zone: ER/Eastern
Departs @ 20:20 (Avg 3m late)
Platform# 8
SMTWTFS
Kolkata Howrah Junction/HWH 
Arrives @ 23:00 +1 night (Avg 4h 27m late)
Platform# ???
SMTWTFS
Kanpur Central/CNB 

90 halts. 230 intermediate Stations between Kolkata Howrah Junction and Kanpur Central

Show ALL intermediate Stations  Show Old Time-Table

#CodeStation NameX/OArrivesAvgDepartsAvgHaltPFDay#KmSpeedElevZoneAddress
1HWH»Kolkata Howrah Junction (23)»  -20:20+3810.05610mERHowrah 711101, West Bengal
2SRPSerampore (4)X  20:41+920:42+111m--119.74611mERdist - hooghly, West Bengal
3CGRChandan Nagar (3)  20:59+821:00+111m--132.82416mERDist -HOOGHLY - 712136, West Bengal
4BDCBandel Junction (7)  21:17+721:22+85m--139.67514mERdist - HOOGHLY, West Bengal
5BWNBarddhaman Junction (8)  22:16+1222:21+125m--1106.88134mERDist - Barddhaman, West Bengal
6DGRDurgapur (5)X  23:08+1223:10+132m--1170.47371mERDurgapur, West Bengal
7RNGRaniGanj (4)X  23:30+2023:31+231m--1194.75292mERRaniganj, West Bengal
8ASNAsansol Junction (7)  23:52+1923:57+235m--1212.863113mERDist - bardhaman, West Bengal
9CRJChittaranjan (3)  00:21+2900:22+291m32237.966182mERMihijam, Jharkhand
10MDPMadhupur Junction (4)X  01:13+3401:18+325m--2294.373254mER06432-224478, Jharkhand
11JSMEJasidih Junction (5)X  01:42+3901:47+385m--2323.480271mERJasidih, Jharkhand
12STLSimultala (2)X  02:06+4202:07+431m--2348.830247mERSimultala, Bihar
13JAJJhajha (4)X  02:45+2402:50+265m--2367.562143mECRJhajha, Bihar
14GHRGidhaur (2)X  03:01+3503:02+461m--2378.967106mECRState Highway 18, Bihar
15JMUJamui (3)X  03:15+5003:16+521m--2393.511981mECRState Highway 72, Bihar
16BFMBhalui  03:25+5403:26+541m--2411.32256mECRState Highway 18, Bihar
17MNPMananpur (2)  03:33+5403:34+581m--2413.91757mECRState Highway 18, Bihar
18BSQPBansipur  03:43+5803:44+1:011m--2416.42453mECRKiul, Bihar
19KIULKiul Junction (5)X  03:55+5703:57+1:062m--2420.81053mECRDist. Lakhisarai, Bihar
20LKRLuckeesarai Junction (2)  04:05+1:0904:06+1:101m--2422.14852mECRLakhisarai, Bihar
21MKBMankatha  04:13+1:1204:14+1:161m--2427.73147mECRNational Highway 80, Bihar
22DMRXDumri Halt (1)XO  04:24+4504:25+451m12433.0849mECRNational Highway 80, Bihar
23BRYABarhiya (3)O  04:57+5004:58+541m--2437.25647mECRBarahiya, Bihar
24RDUMRampur Dumra (3)O  05:04+5505:05+551m--2442.83346mECRNational Highway 80, Bihar
25HTZHathidah Junction (2)  05:12+5505:13+551m22446.64550mECRMusahari, Bihar
26ANAHAunta Halt  05:19-05:20-1m--2451.11444mECRPanchmahla, Bihar
27MKAMokama Junction (3)  05:36+4905:38+552m--2455.04848mECRPatna, Bihar
28MORMorX  05:47+5605:48+561m--2462.23346mECRMor, Bihar
29KNHPKanhaipur  05:54+5505:55+551m--2465.53447mECRMor, Bihar
30MMKBMemrakhabad  05:59+5306:00+531m--2467.83249mECRMor, Bihar
31PHKPunarakhX  06:05+5306:06+561m--2470.56251mECRPunarakh, Bihar
32BARHBarh (3)  06:16+5606:17+1:011m--2480.96149mECRBarh, Bihar
33ATLAthmal Gola (2)X  06:26+1:0106:27+1:031m--2490.14552mECRPatna, Bihar
34BKPBakhtiyarpur Junction (5)X06:39+1:0006:44+1:065m--2499.15051mECRPatna, Bihar
35TKBGTeka Bigha HaltX  06:49-06:50-1m--2503.36851mECRTeka Bigha, Bihar
36SMBHSalim Pur BiharO  06:54-06:55-1m--2507.83652mECRSalim Pur, Bihar
37KWOKarauta (2)  06:59+1:0907:00+1:111m--2510.27154mECRKarauta, Bihar
38KOOKhusropur (2)X  07:07+1:1007:08+1:121m--2518.55652mECRPatna, Bihar
39FUTFatwa (6)X  07:17+1:1507:18+1:201m--2526.94653mECRPatna, Bihar
40BKGBanka Ghat (2)  07:26+1:2107:27+1:231m--2533.06156mECRPatna, Bihar
41PNCPatna Saheb (3)X  07:33+1:2107:34+1:221m--2539.22659mECRPatna, Bihar
42GZHGulzarbagh (3)X  07:41+1:2107:42+1:241m--2542.22855mECRPatna, Bihar
43RJPBRajendra Nagar Bihar (4)X  07:51+1:2607:53+1:272m--2546.4755mECRPatna 800001, Bihar
44PNBEPatna Junction (10)X  08:15+1:0608:25+1:0810m--2549.03857mECRPatna 800001, Bihar
45DNRDanapur (5)X  08:40+1:3008:50+1:3010m--2558.46058mECRKhagaul, Bihar
46NEONeora (2)  08:56+1:2808:57+1:301m--2564.55361mECRNational Highway 98, Bihar
47SDESadisopur (2)X  09:05+1:2309:06+1:231m--2571.53664mECRSadisopur, Bihar
48BTABihta (2)X  09:13+1:2709:14+1:291m--2575.84062mECRDistt: Patna, Bihar
49KWRKoelwar (2)  09:27+1:0609:28+1:061m--2584.54365mECRNational Highway 30, Bihar
50KUAKulharia (2)X  09:33+1:2809:34+1:301m--2588.14261mECRChandi Sahar Rd, Bihar
51ARAAra Junction (3)X  09:48+1:2109:53+1:265m--2598.06663mECRarrah( 06182-233411), Bihar
52KRSKarisath (2)X  10:02+1:3710:03+1:391m--2607.97765mECRKarisath, Bihar
53BEABihiya (3)  10:12+1:4210:13+1:481m--2619.45967mECRBehea, Bihar
54BYNBanahi (2)  10:19+1:5110:20+1:511m--2625.35967mECRBanahi, Bihar
55RPRRaghunathpur (4)  10:29+1:4810:30+1:511m--2634.26369mECRRaghunathpur, Bihar
56TWGTwining GanjX  10:38+1:5310:39+1:531m--2642.53370mECRArrah Buxar Rd, Bihar
57DUREDumraon (3)  10:53+1:3510:54+1:361m--2650.15270mECRDumraon, Bihar
58BXRBuxar (3)O  11:13+1:3011:17+1:324m--2666.57367mECRBuxar, Bihar
59CSAChausa (2)X  11:26+1:4011:27+1:421m--2677.44368mECRState Highway 14, Bihar
60GMRGahmar (2)  11:40+1:5511:41+1:551m--2686.66168mECRDistt: Ghazipur, Uttar Pradesh
61BWHBhadaura (2)  11:49+1:5011:50+1:521m--2694.85269mECRGhazipur, Uttar Pradesh
62DLNDildarnagar Junction (2)O  11:59+1:5612:04+1:535m--2702.78172mECRDildarnagar, Uttar Pradesh
63ZNAZamania (2)X  12:14+1:5712:15+1:591m--2716.210477mECRGhazipur, Uttar Pradesh
64SLDSakaldiha (2)X  12:30+2:0212:31+2:031m--2742.21281mECRState Highway 69, Uttar Pradesh
65MGSMughal Sarai Junction (8)O  14:02+1:0714:17+1:1015m62760.42183mECRMughalsarai 232101, Uttar Pradesh
66ARWAhraura Road (4)X  14:56+1:1614:57+1:261m--2774.25185mNCRDist. Mirzapur - 231305, Uttar Pradesh
67KYTKailahat (4)  15:07+1:4415:08+1:501m--2782.74783mNCRKailahat, Uttar Pradesh
68CARChunar Junction (5)O  15:20+2:0015:22+2:052m32792.14985mNCRChunar Junction, Uttar Pradesh
69MZPMirzapur (3)O  16:00+2:1316:05+2:125m--2823.45588mNCRMirzapur, Uttar Pradesh
70BDLVindhyachal (3)XO  16:13+2:3916:15+2:392m--2830.74988mNCRMirzapur, Uttar Pradesh
71GAEGaipura (4)XO  16:30+2:4916:31+2:521m--2843.03486mNCRGaipura, Uttar Pradesh
72JIAJigna (1)X  16:43+2:5416:44+2:551m12849.96294mNCRNational Highway 76, Uttar Pradesh
73MNFManda RoadX  16:52+2:5216:54+2:542m--2858.25493mNCRNH 76, Uttar Pradesh
74UNDUnchdihX  17:03+2:5617:04+2:561m--2866.37094mNCRUnchdih, Uttar Pradesh
75MJAMeja Road (4)XO  17:11+2:5517:13+2:552m--2874.56894mNCRDistrict Allahabad, Uttar Pradesh
76KCNKarchanaX  17:31+3:0317:32+3:051m--2894.95894mNCRKarchana, Uttar Pradesh
77NYNNaini Junction (4)  17:43+3:2817:44+3:301m22905.52098mNCRAllahabad, Uttar Pradesh
78ALDAllahabad Junction (10)X  18:05+2:5018:15+2:5410m42912.622100mNCRAllahabad 211003, Uttar Pradesh
79SFGSubedarGanj (3)  18:25+3:4318:26+3:451m--2916.350100mNCRAllahabad, Uttar Pradesh
80BMUBamhrauli  18:32+3:4718:33+3:501m--2921.456102mNCRAllahabad, Uttar Pradesh
81MREManauriO  18:42+3:5218:43+4:011m--2929.820105mNCRSabderganj-Fatehpur Rd, Uttar Pradesh
82SYWNSaiyid SarawanX  18:57+3:5518:58+3:581m--2934.445106mNCR212203 ?, Uttar Pradesh
83MNJManoharGanj  19:08+4:0219:09+4:171m--2941.852104mNCRNational Highway 2, Uttar Pradesh
84BREBharwari  19:18+4:1719:20+4:222m--2949.727108mNCRBharwari, Uttar Pradesh
85BDNPBidanpurXO  19:29+4:2119:30+4:281m--2953.762106mNCRBidanpur, Uttar Pradesh
86SJTShujaatpurX  19:36+4:2919:37+4:351m--2960.066107mNCRNational Highway 2, Uttar Pradesh
87SROSirathu (2)X  19:46+4:3719:48+4:452m12969.862109mNCRSirathu, Uttar Pradesh
88KGAKhaga (3)X  20:12+4:5020:14+4:522m--2994.680114mNCRFatehpur, Uttar Pradesh
89FTPFatehpur (3)  20:40+4:5620:45+5:085m--21029.374120mNCRFatehpur, Uttar Pradesh
90MWHMalwan (2)X  20:58+5:2021:00+5:252m--21045.483122mNCRFatehpur, Uttar Pradesh
91BKOBindki RoadXO  21:11+5:3421:13+5:342m--21060.626124mNCRFatehpur, Uttar Pradesh
92CNB•Kanpur Central (10)•X  23:00+4:2723:10+4:2510m--21106.970128mNCRKANPUR-208 001, Uttar Pradesh
93RURARura (4)X  23:48+5:5423:50+5:582m--21151.371137mNCRJhinjhak, Uttar Pradesh
94JJKJhinjhak (3)X  00:06+5:4500:08+5:502m331170.370140mNCRAuraiya, Uttar Pradesh
95PHDPhaphund (4)XO  00:25+5:2100:27+5:272m--31190.125146mNCRdist. Auraiya, Uttar Pradesh
96ULDAchalda (3)X  01:07+5:4001:09+5:452m--31206.973147mNCRDist. Auraiya(05688-1072), Uttar Pradesh
97BNTBharthana (3)XO  01:25+5:4501:27+5:462m--31226.420147mNCRBharthana, Uttar Pradesh
98ETWEtawah (5)XO  02:27+4:4302:32+4:445m231246.313154mNCRDistt. Etawah, Uttar Pradesh
99JGRJaswantnagar (2)XO  03:46+4:3803:48+4:442m--31262.353154mNCRJaswantnagar, Uttar Pradesh
100SKBShikohabad Junction (4)O  04:33+4:2304:38+4:235m--31301.737166mNCRDistrict Firozabad, Uttar Pradesh
101FZDFirozabad (4)O  05:10+4:1905:15+4:215m331321.633164mNCRFirozabad, Uttar Pradesh
102TDLTundla Junction (5)O  05:45+4:1305:55+4:1410m--31338.155167mNCRDistt.Firozabad, Uttar Pradesh
103BRNBarhan Junction  06:11+4:3706:12+4:431m--31352.872173mNCRJN Point-Tundle/Aligarh/Etah, Uttar Pradesh
104JLSJalesar Road (1)  06:23+4:4106:24+4:461m131365.975172mNCRMDR 106W, Uttar Pradesh
105HRSHathras Junction (3)  06:40+4:5006:45+4:545m--31386.060183mNCRMahamaya Nagar(05722-242803), Uttar Pradesh
106SNSSasni (3)  06:54+4:5606:55+5:051m--31395.055185mNCRSasni, Uttar Pradesh
107MXKMandrak (2)  07:03+5:1007:04+5:121m--31402.476190mNCRNational Highway 93, Uttar Pradesh
108ALJNAligarh Junction (4)  07:15+4:4807:20+4:485m--31416.265192mNCRAligarh, Uttar Pradesh
109KLAKulwa (2)X  07:31+5:0907:32+5:091m--31428.268190mNCRAligarh, Uttar Pradesh
110SOMSomna (2)X  07:41+5:1007:42+5:101m--31438.368195mNCRNational Highway 91, Uttar Pradesh
111DARDanwar (2)X  07:51+5:1007:52+5:101m--31448.674198mNCRDanwar, Uttar Pradesh
112KRJKhurja Junction (4)XO  08:01+5:1408:06+5:135m--31459.77199mNCRBulandshahr, Uttar Pradesh
113SKQSikandarpur (2)  08:55+4:4808:56+4:481m--31465.467199mNCRMDR 70W, Uttar Pradesh
114CHLChola (3)O  09:04+4:4909:05+4:501m--31474.259204mNCRTahsil Bulandshahar, Uttar Pradesh
115WAIRWair (2)O  09:10+4:5309:11+4:541m131479.210203mNCRBulandshahr District, Uttar Pradesh
116DKDEDankaur (3)O  10:05+4:2010:06+4:211m--31488.238209mNCRShyam Nagar Mandi, Uttar Pradesh
117GZBGhaziabad Junction (6)O  11:00+3:5911:02+3:582m--31522.448217mNRGhaziabad, Uttar Pradesh
118DSAShahdara Junction (4)  11:19+4:0011:21+4:002m--31536.016212mNRCircular Rd, Delhi NCT
119DLIOld Delhi Junction (16)  11:45+4:13-1331542.3-219mNRNear Chandni Chowk Metro Station, Delhi NCT
Scroll to Top
Scroll to Bottom